sensor_id;sensor_type;location;lat;lon;timestamp;P1;durP1;ratioP1;P2;durP2;ratioP2
54599;SDS011;40500;51.084;16.958;2022-12-07T00:01:17;4.30;;;3.20;;
54599;SDS011;40500;51.084;16.958;2022-12-07T00:04:06;6.10;;;4.30;;
54599;SDS011;40500;51.084;16.958;2022-12-07T00:07:01;6.00;;;3.60;;
54599;SDS011;40500;51.084;16.958;2022-12-07T00:09:33;4.50;;;3.40;;
54599;SDS011;40500;51.084;16.958;2022-12-07T00:12:29;6.00;;;3.00;;
54599;SDS011;40500;51.084;16.958;2022-12-07T00:15:18;5.00;;;3.30;;
54599;SDS011;40500;51.084;16.958;2022-12-07T00:17:56;4.30;;;3.00;;
54599;SDS011;40500;51.084;16.958;2022-12-07T00:20:31;3.80;;;3.10;;
54599;SDS011;40500;51.084;16.958;2022-12-07T00:23:23;4.20;;;3.10;;
54599;SDS011;40500;51.084;16.958;2022-12-07T00:26:17;3.60;;;2.70;;
54599;SDS011;40500;51.084;16.958;2022-12-07T00:28:53;4.70;;;2.80;;
54599;SDS011;40500;51.084;16.958;2022-12-07T00:31:45;3.60;;;3.00;;
54599;SDS011;40500;51.084;16.958;2022-12-07T00:34:42;5.00;;;3.10;;
54599;SDS011;40500;51.084;16.958;2022-12-07T00:37:34;2.80;;;2.30;;
54599;SDS011;40500;51.084;16.958;2022-12-07T00:40:30;4.70;;;2.70;;
54599;SDS011;40500;51.084;16.958;2022-12-07T00:43:14;3.40;;;2.10;;
54599;SDS011;40500;51.084;16.958;2022-12-07T00:45:45;3.00;;;2.70;;
54599;SDS011;40500;51.084;16.958;2022-12-07T00:48:34;3.60;;;2.90;;
54599;SDS011;40500;51.084;16.958;2022-12-07T00:51:07;3.40;;;2.50;;
54599;SDS011;40500;51.084;16.958;2022-12-07T00:53:47;3.50;;;2.60;;
54599;SDS011;40500;51.084;16.958;2022-12-07T00:56:22;2.10;;;1.60;;
54599;SDS011;40500;51.084;16.958;2022-12-07T00:59:14;3.40;;;2.70;;
54599;SDS011;40500;51.084;16.958;2022-12-07T01:02:04;2.90;;;2.00;;
54599;SDS011;40500;51.084;16.958;2022-12-07T01:04:55;2.50;;;2.20;;
54599;SDS011;40500;51.084;16.958;2022-12-07T01:07:37;3.20;;;2.50;;
54599;SDS011;40500;51.084;16.958;2022-12-07T01:10:26;2.30;;;1.90;;
54599;SDS011;40500;51.084;16.958;2022-12-07T01:13:18;2.40;;;1.90;;
54599;SDS011;40500;51.084;16.958;2022-12-07T01:16:11;2.50;;;1.90;;
54599;SDS011;40500;51.084;16.958;2022-12-07T01:19:04;3.50;;;2.20;;
54599;SDS011;40500;51.084;16.958;2022-12-07T01:21:39;2.10;;;1.90;;
54599;SDS011;40500;51.084;16.958;2022-12-07T01:24:10;1.90;;;1.60;;
54599;SDS011;40500;51.084;16.958;2022-12-07T01:27:00;2.80;;;1.80;;
54599;SDS011;40500;51.084;16.958;2022-12-07T01:29:30;2.30;;;1.80;;
54599;SDS011;40500;51.084;16.958;2022-12-07T01:32:12;2.50;;;2.10;;
54599;SDS011;40500;51.084;16.958;2022-12-07T01:35:06;1.90;;;1.70;;
54599;SDS011;40500;51.084;16.958;2022-12-07T01:37:51;3.10;;;2.20;;
54599;SDS011;40500;51.084;16.958;2022-12-07T01:40:22;3.40;;;1.80;;
54599;SDS011;40500;51.084;16.958;2022-12-07T01:43:15;2.60;;;1.90;;
54599;SDS011;40500;51.084;16.958;2022-12-07T01:46:05;2.10;;;1.70;;
54599;SDS011;40500;51.084;16.958;2022-12-07T01:49:00;3.10;;;1.50;;
54599;SDS011;40500;51.084;16.958;2022-12-07T01:51:54;3.40;;;1.50;;
54599;SDS011;40500;51.084;16.958;2022-12-07T01:54:54;1.80;;;1.40;;
54599;SDS011;40500;51.084;16.958;2022-12-07T01:57:32;2.10;;;1.70;;
54599;SDS011;40500;51.084;16.958;2022-12-07T02:00:25;2.30;;;1.70;;
54599;SDS011;40500;51.084;16.958;2022-12-07T02:03:17;1.30;;;1.20;;
54599;SDS011;40500;51.084;16.958;2022-12-07T02:06:11;4.70;;;1.60;;
54599;SDS011;40500;51.084;16.958;2022-12-07T02:08:45;1.50;;;1.10;;
54599;SDS011;40500;51.084;16.958;2022-12-07T02:11:36;1.50;;;1.40;;
54599;SDS011;40500;51.084;16.958;2022-12-07T02:14:31;1.00;;;1.00;;
54599;SDS011;40500;51.084;16.958;2022-12-07T02:17:07;2.90;;;1.40;;
54599;SDS011;40500;51.084;16.958;2022-12-07T02:20:18;1.50;;;1.20;;
54599;SDS011;40500;51.084;16.958;2022-12-07T02:23:26;1.30;;;1.10;;
54599;SDS011;40500;51.084;16.958;2022-12-07T02:29:38;2.40;;;1.00;;
54599;SDS011;40500;51.084;16.958;2022-12-07T02:32:39;1.30;;;1.20;;
54599;SDS011;40500;51.084;16.958;2022-12-07T02:35:39;2.80;;;1.10;;
54599;SDS011;40500;51.084;16.958;2022-12-07T02:38:33;0.90;;;0.80;;
54599;SDS011;40500;51.084;16.958;2022-12-07T02:41:37;0.80;;;0.80;;
54599;SDS011;40500;51.084;16.958;2022-12-07T02:44:12;1.30;;;1.10;;
54599;SDS011;40500;51.084;16.958;2022-12-07T02:47:04;1.40;;;1.20;;
54599;SDS011;40500;51.084;16.958;2022-12-07T02:50:03;3.80;;;1.10;;
54599;SDS011;40500;51.084;16.958;2022-12-07T02:52:55;3.00;;;1.30;;
54599;SDS011;40500;51.084;16.958;2022-12-07T02:55:46;1.40;;;1.10;;
54599;SDS011;40500;51.084;16.958;2022-12-07T02:58:22;1.70;;;1.20;;
54599;SDS011;40500;51.084;16.958;2022-12-07T03:01:23;1.60;;;1.10;;
54599;SDS011;40500;51.084;16.958;2022-12-07T03:04:27;1.80;;;1.40;;
54599;SDS011;40500;51.084;16.958;2022-12-07T03:07:28;1.00;;;1.00;;
54599;SDS011;40500;51.084;16.958;2022-12-07T03:10:27;1.60;;;1.30;;
54599;SDS011;40500;51.084;16.958;2022-12-07T03:13:06;1.50;;;1.20;;
54599;SDS011;40500;51.084;16.958;2022-12-07T03:16:14;2.50;;;2.00;;
54599;SDS011;40500;51.084;16.958;2022-12-07T03:18:48;3.00;;;1.70;;
54599;SDS011;40500;51.084;16.958;2022-12-07T03:21:45;1.30;;;1.20;;
54599;SDS011;40500;51.084;16.958;2022-12-07T03:24:39;2.10;;;1.10;;
54599;SDS011;40500;51.084;16.958;2022-12-07T03:27:22;1.30;;;1.20;;
54599;SDS011;40500;51.084;16.958;2022-12-07T03:30:18;1.40;;;1.30;;
54599;SDS011;40500;51.084;16.958;2022-12-07T03:33:13;1.60;;;1.50;;
54599;SDS011;40500;51.084;16.958;2022-12-07T03:36:11;1.40;;;1.30;;
54599;SDS011;40500;51.084;16.958;2022-12-07T03:38:55;1.10;;;1.10;;
54599;SDS011;40500;51.084;16.958;2022-12-07T03:41:55;2.90;;;1.50;;
54599;SDS011;40500;51.084;16.958;2022-12-07T03:44:52;1.30;;;1.20;;
54599;SDS011;40500;51.084;16.958;2022-12-07T03:47:29;2.00;;;1.80;;
54599;SDS011;40500;51.084;16.958;2022-12-07T03:50:06;2.60;;;1.70;;
54599;SDS011;40500;51.084;16.958;2022-12-07T03:52:47;1.60;;;1.40;;
54599;SDS011;40500;51.084;16.958;2022-12-07T03:55:34;1.50;;;1.40;;
54599;SDS011;40500;51.084;16.958;2022-12-07T03:58:27;1.60;;;1.50;;
54599;SDS011;40500;51.084;16.958;2022-12-07T04:01:54;1.20;;;1.10;;
54599;SDS011;40500;51.084;16.958;2022-12-07T04:04:45;2.00;;;1.80;;
54599;SDS011;40500;51.084;16.958;2022-12-07T04:07:36;3.50;;;1.20;;
54599;SDS011;40500;51.084;16.958;2022-12-07T04:10:29;1.40;;;1.30;;
54599;SDS011;40500;51.084;16.958;2022-12-07T04:13:20;1.70;;;1.60;;
54599;SDS011;40500;51.084;16.958;2022-12-07T04:16:14;1.10;;;1.10;;
54599;SDS011;40500;51.084;16.958;2022-12-07T04:19:13;1.60;;;1.40;;
54599;SDS011;40500;51.084;16.958;2022-12-07T04:21:54;1.40;;;1.30;;
54599;SDS011;40500;51.084;16.958;2022-12-07T04:24:51;1.30;;;1.20;;
54599;SDS011;40500;51.084;16.958;2022-12-07T04:27:52;1.60;;;1.30;;
54599;SDS011;40500;51.084;16.958;2022-12-07T04:30:33;1.70;;;1.60;;
54599;SDS011;40500;51.084;16.958;2022-12-07T04:33:25;2.00;;;1.50;;
54599;SDS011;40500;51.084;16.958;2022-12-07T04:35:57;1.60;;;1.50;;
54599;SDS011;40500;51.084;16.958;2022-12-07T04:38:49;1.10;;;1.10;;
54599;SDS011;40500;51.084;16.958;2022-12-07T04:41:43;2.00;;;1.80;;
54599;SDS011;40500;51.084;16.958;2022-12-07T04:44:35;1.50;;;1.40;;
54599;SDS011;40500;51.084;16.958;2022-12-07T04:47:23;1.70;;;1.60;;
54599;SDS011;40500;51.084;16.958;2022-12-07T04:49:55;2.20;;;2.00;;
54599;SDS011;40500;51.084;16.958;2022-12-07T04:52:46;1.80;;;1.70;;
54599;SDS011;40500;51.084;16.958;2022-12-07T04:55:23;1.50;;;1.40;;
54599;SDS011;40500;51.084;16.958;2022-12-07T04:58:15;2.20;;;1.80;;
54599;SDS011;40500;51.084;16.958;2022-12-07T05:00:48;2.80;;;2.20;;
54599;SDS011;40500;51.084;16.958;2022-12-07T05:03:41;2.50;;;2.00;;
54599;SDS011;40500;51.084;16.958;2022-12-07T05:06:34;2.50;;;2.00;;
54599;SDS011;40500;51.084;16.958;2022-12-07T05:09:26;2.30;;;1.70;;
54599;SDS011;40500;51.084;16.958;2022-12-07T05:12:20;2.00;;;1.80;;
54599;SDS011;40500;51.084;16.958;2022-12-07T05:15:10;3.00;;;2.40;;
54599;SDS011;40500;51.084;16.958;2022-12-07T05:18:00;5.80;;;2.70;;
54599;SDS011;40500;51.084;16.958;2022-12-07T05:20:51;2.70;;;2.20;;
54599;SDS011;40500;51.084;16.958;2022-12-07T05:23:49;3.90;;;2.80;;
54599;SDS011;40500;51.084;16.958;2022-12-07T05:26:41;3.70;;;3.00;;
54599;SDS011;40500;51.084;16.958;2022-12-07T05:29:15;4.10;;;3.20;;
54599;SDS011;40500;51.084;16.958;2022-12-07T05:31:45;5.40;;;3.40;;
54599;SDS011;40500;51.084;16.958;2022-12-07T05:34:34;5.20;;;3.70;;
54599;SDS011;40500;51.084;16.958;2022-12-07T05:37:24;7.00;;;4.00;;
54599;SDS011;40500;51.084;16.958;2022-12-07T05:39:55;5.80;;;3.70;;
54599;SDS011;40500;51.084;16.958;2022-12-07T05:42:26;6.20;;;4.20;;
54599;SDS011;40500;51.084;16.958;2022-12-07T05:45:15;7.50;;;5.10;;
54599;SDS011;40500;51.084;16.958;2022-12-07T05:47:49;10.00;;;5.90;;
54599;SDS011;40500;51.084;16.958;2022-12-07T05:50:18;11.30;;;6.40;;
54599;SDS011;40500;51.084;16.958;2022-12-07T05:52:59;9.10;;;5.60;;
54599;SDS011;40500;51.084;16.958;2022-12-07T05:55:34;10.80;;;7.30;;
54599;SDS011;40500;51.084;16.958;2022-12-07T05:58:28;8.70;;;5.40;;
54599;SDS011;40500;51.084;16.958;2022-12-07T06:01:14;12.10;;;6.20;;
54599;SDS011;40500;51.084;16.958;2022-12-07T06:04:05;12.70;;;7.30;;
54599;SDS011;40500;51.084;16.958;2022-12-07T06:06:58;11.10;;;6.90;;
54599;SDS011;40500;51.084;16.958;2022-12-07T06:09:31;13.10;;;7.10;;
54599;SDS011;40500;51.084;16.958;2022-12-07T06:12:05;14.20;;;8.00;;
54599;SDS011;40500;51.084;16.958;2022-12-07T06:14:51;15.40;;;8.40;;
54599;SDS011;40500;51.084;16.958;2022-12-07T06:17:26;16.50;;;8.60;;
54599;SDS011;40500;51.084;16.958;2022-12-07T06:19:58;15.50;;;8.30;;
54599;SDS011;40500;51.084;16.958;2022-12-07T06:22:26;12.70;;;8.00;;
54599;SDS011;40500;51.084;16.958;2022-12-07T06:25:00;13.10;;;8.30;;
54599;SDS011;40500;51.084;16.958;2022-12-07T06:27:56;14.00;;;8.30;;
54599;SDS011;40500;51.084;16.958;2022-12-07T06:30:56;13.90;;;7.50;;
54599;SDS011;40500;51.084;16.958;2022-12-07T06:33:30;10.50;;;6.50;;
54599;SDS011;40500;51.084;16.958;2022-12-07T06:36:15;13.90;;;8.00;;
54599;SDS011;40500;51.084;16.958;2022-12-07T06:39:13;13.00;;;8.00;;
54599;SDS011;40500;51.084;16.958;2022-12-07T06:42:00;12.70;;;8.00;;
54599;SDS011;40500;51.084;16.958;2022-12-07T06:45:00;13.80;;;6.90;;
54599;SDS011;40500;51.084;16.958;2022-12-07T06:48:01;14.90;;;8.60;;
54599;SDS011;40500;51.084;16.958;2022-12-07T06:51:15;15.50;;;7.40;;
54599;SDS011;40500;51.084;16.958;2022-12-07T06:54:09;11.00;;;7.00;;
54599;SDS011;40500;51.084;16.958;2022-12-07T06:57:06;14.20;;;8.20;;
54599;SDS011;40500;51.084;16.958;2022-12-07T06:59:38;11.20;;;6.50;;
54599;SDS011;40500;51.084;16.958;2022-12-07T07:02:05;12.50;;;7.30;;
54599;SDS011;40500;51.084;16.958;2022-12-07T07:04:34;12.30;;;8.10;;
54599;SDS011;40500;51.084;16.958;2022-12-07T07:07:01;13.00;;;7.50;;
54599;SDS011;40500;51.084;16.958;2022-12-07T07:09:30;13.20;;;8.00;;
54599;SDS011;40500;51.084;16.958;2022-12-07T07:11:57;14.70;;;8.10;;
54599;SDS011;40500;51.084;16.958;2022-12-07T07:14:25;10.00;;;6.60;;
54599;SDS011;40500;51.084;16.958;2022-12-07T07:16:52;14.30;;;8.10;;
54599;SDS011;40500;51.084;16.958;2022-12-07T07:19:20;11.60;;;7.80;;
54599;SDS011;40500;51.084;16.958;2022-12-07T07:21:48;10.10;;;6.20;;
54599;SDS011;40500;51.084;16.958;2022-12-07T07:24:16;15.60;;;8.20;;
54599;SDS011;40500;51.084;16.958;2022-12-07T07:26:43;12.70;;;7.90;;
54599;SDS011;40500;51.084;16.958;2022-12-07T07:29:13;12.80;;;7.30;;
54599;SDS011;40500;51.084;16.958;2022-12-07T07:31:43;10.80;;;7.50;;
54599;SDS011;40500;51.084;16.958;2022-12-07T07:34:12;12.10;;;7.70;;
54599;SDS011;40500;51.084;16.958;2022-12-07T07:36:40;15.10;;;7.50;;
54599;SDS011;40500;51.084;16.958;2022-12-07T07:39:09;14.60;;;8.20;;
54599;SDS011;40500;51.084;16.958;2022-12-07T07:41:38;12.80;;;7.30;;
54599;SDS011;40500;51.084;16.958;2022-12-07T07:44:07;12.70;;;7.70;;
54599;SDS011;40500;51.084;16.958;2022-12-07T07:46:36;11.80;;;7.00;;
54599;SDS011;40500;51.084;16.958;2022-12-07T07:49:03;12.60;;;8.00;;
54599;SDS011;40500;51.084;16.958;2022-12-07T07:51:32;12.10;;;7.60;;
54599;SDS011;40500;51.084;16.958;2022-12-07T07:54:00;12.10;;;7.20;;
54599;SDS011;40500;51.084;16.958;2022-12-07T07:56:28;13.90;;;8.30;;
54599;SDS011;40500;51.084;16.958;2022-12-07T07:58:55;9.70;;;6.60;;
54599;SDS011;40500;51.084;16.958;2022-12-07T08:01:24;11.10;;;7.40;;
54599;SDS011;40500;51.084;16.958;2022-12-07T08:03:52;12.40;;;6.90;;
54599;SDS011;40500;51.084;16.958;2022-12-07T08:06:20;10.40;;;6.40;;
54599;SDS011;40500;51.084;16.958;2022-12-07T08:08:47;12.30;;;7.20;;
54599;SDS011;40500;51.084;16.958;2022-12-07T08:11:15;11.80;;;7.30;;
54599;SDS011;40500;51.084;16.958;2022-12-07T08:13:44;10.60;;;6.60;;
54599;SDS011;40500;51.084;16.958;2022-12-07T08:16:13;12.90;;;7.20;;
54599;SDS011;40500;51.084;16.958;2022-12-07T08:18:44;12.10;;;7.00;;
54599;SDS011;40500;51.084;16.958;2022-12-07T08:21:13;10.40;;;6.60;;
54599;SDS011;40500;51.084;16.958;2022-12-07T08:23:42;11.30;;;7.50;;
54599;SDS011;40500;51.084;16.958;2022-12-07T08:26:12;9.90;;;6.40;;
54599;SDS011;40500;51.084;16.958;2022-12-07T08:28:42;10.20;;;6.50;;
54599;SDS011;40500;51.084;16.958;2022-12-07T08:31:13;13.00;;;7.00;;
54599;SDS011;40500;51.084;16.958;2022-12-07T08:33:52;12.90;;;8.50;;
54599;SDS011;40500;51.084;16.958;2022-12-07T08:36:23;12.30;;;6.90;;
54599;SDS011;40500;51.084;16.958;2022-12-07T08:38:52;16.40;;;8.70;;
54599;SDS011;40500;51.084;16.958;2022-12-07T08:41:41;16.10;;;9.00;;
54599;SDS011;40500;51.084;16.958;2022-12-07T08:44:08;14.70;;;7.90;;
54599;SDS011;40500;51.084;16.958;2022-12-07T08:46:36;11.80;;;6.80;;
54599;SDS011;40500;51.084;16.958;2022-12-07T08:49:08;14.50;;;8.60;;
54599;SDS011;40500;51.084;16.958;2022-12-07T08:51:38;12.40;;;7.70;;
54599;SDS011;40500;51.084;16.958;2022-12-07T08:54:07;13.50;;;7.20;;
54599;SDS011;40500;51.084;16.958;2022-12-07T08:56:39;13.80;;;8.30;;
54599;SDS011;40500;51.084;16.958;2022-12-07T08:59:07;16.10;;;8.20;;
54599;SDS011;40500;51.084;16.958;2022-12-07T09:01:37;10.90;;;7.10;;
54599;SDS011;40500;51.084;16.958;2022-12-07T09:04:05;8.40;;;5.50;;
54599;SDS011;40500;51.084;16.958;2022-12-07T09:06:32;13.40;;;6.50;;
54599;SDS011;40500;51.084;16.958;2022-12-07T09:09:01;11.00;;;6.50;;
54599;SDS011;40500;51.084;16.958;2022-12-07T09:11:30;12.50;;;6.70;;
54599;SDS011;40500;51.084;16.958;2022-12-07T09:13:58;9.70;;;6.90;;
54599;SDS011;40500;51.084;16.958;2022-12-07T09:16:28;9.90;;;5.50;;
54599;SDS011;40500;51.084;16.958;2022-12-07T09:18:56;8.80;;;6.10;;
54599;SDS011;40500;51.084;16.958;2022-12-07T09:21:27;10.60;;;6.60;;
54599;SDS011;40500;51.084;16.958;2022-12-07T09:23:55;9.00;;;5.90;;
54599;SDS011;40500;51.084;16.958;2022-12-07T09:26:22;6.80;;;4.60;;
54599;SDS011;40500;51.084;16.958;2022-12-07T09:28:52;11.30;;;6.90;;
54599;SDS011;40500;51.084;16.958;2022-12-07T09:31:22;7.30;;;5.60;;
54599;SDS011;40500;51.084;16.958;2022-12-07T09:33:55;8.00;;;5.60;;
54599;SDS011;40500;51.084;16.958;2022-12-07T09:36:24;8.40;;;5.20;;
54599;SDS011;40500;51.084;16.958;2022-12-07T09:38:53;6.70;;;4.50;;
54599;SDS011;40500;51.084;16.958;2022-12-07T09:41:22;7.00;;;5.00;;
54599;SDS011;40500;51.084;16.958;2022-12-07T09:43:56;5.80;;;3.70;;
54599;SDS011;40500;51.084;16.958;2022-12-07T09:46:29;8.90;;;4.50;;
54599;SDS011;40500;51.084;16.958;2022-12-07T09:49:04;5.70;;;3.90;;
54599;SDS011;40500;51.084;16.958;2022-12-07T09:51:35;7.70;;;4.80;;
54599;SDS011;40500;51.084;16.958;2022-12-07T09:54:04;8.80;;;4.40;;
54599;SDS011;40500;51.084;16.958;2022-12-07T09:56:36;8.90;;;4.80;;
54599;SDS011;40500;51.084;16.958;2022-12-07T09:59:13;7.20;;;3.90;;
54599;SDS011;40500;51.084;16.958;2022-12-07T10:01:44;6.70;;;4.30;;
54599;SDS011;40500;51.084;16.958;2022-12-07T10:04:15;5.60;;;4.30;;
54599;SDS011;40500;51.084;16.958;2022-12-07T10:06:45;5.50;;;3.70;;
54599;SDS011;40500;51.084;16.958;2022-12-07T10:09:14;8.30;;;3.60;;
54599;SDS011;40500;51.084;16.958;2022-12-07T10:12:00;3.90;;;2.90;;
54599;SDS011;40500;51.084;16.958;2022-12-07T10:14:30;6.70;;;4.50;;
54599;SDS011;40500;51.084;16.958;2022-12-07T10:17:28;6.20;;;4.20;;
54599;SDS011;40500;51.084;16.958;2022-12-07T10:20:11;8.20;;;4.90;;
54599;SDS011;40500;51.084;16.958;2022-12-07T10:22:56;7.70;;;4.90;;
54599;SDS011;40500;51.084;16.958;2022-12-07T10:25:29;6.70;;;4.80;;
54599;SDS011;40500;51.084;16.958;2022-12-07T10:28:00;6.60;;;4.50;;
54599;SDS011;40500;51.084;16.958;2022-12-07T10:30:46;7.40;;;4.70;;
54599;SDS011;40500;51.084;16.958;2022-12-07T10:36:01;3.60;;;2.70;;
54599;SDS011;40500;51.084;16.958;2022-12-07T10:38:46;4.20;;;3.20;;
54599;SDS011;40500;51.084;16.958;2022-12-07T10:41:15;3.40;;;2.50;;
54599;SDS011;40500;51.084;16.958;2022-12-07T10:43:47;4.00;;;3.30;;
54599;SDS011;40500;51.084;16.958;2022-12-07T10:52:07;4.30;;;2.60;;
54599;SDS011;40500;51.084;16.958;2022-12-07T10:54:44;3.80;;;2.90;;
54599;SDS011;40500;51.084;16.958;2022-12-07T10:57:34;2.40;;;1.90;;
54599;SDS011;40500;51.084;16.958;2022-12-07T11:00:14;6.00;;;2.90;;
54599;SDS011;40500;51.084;16.958;2022-12-07T11:03:02;2.40;;;1.80;;
54599;SDS011;40500;51.084;16.958;2022-12-07T11:05:52;2.90;;;2.50;;
54599;SDS011;40500;51.084;16.958;2022-12-07T11:08:30;3.20;;;2.00;;
54599;SDS011;40500;51.084;16.958;2022-12-07T11:13:44;4.60;;;3.00;;
54599;SDS011;40500;51.084;16.958;2022-12-07T11:16:24;3.10;;;2.30;;
54599;SDS011;40500;51.084;16.958;2022-12-07T11:19:05;5.50;;;3.40;;
54599;SDS011;40500;51.084;16.958;2022-12-07T11:21:44;5.80;;;3.20;;
54599;SDS011;40500;51.084;16.958;2022-12-07T11:24:22;6.80;;;2.90;;
54599;SDS011;40500;51.084;16.958;2022-12-07T11:27:09;4.20;;;2.50;;
54599;SDS011;40500;51.084;16.958;2022-12-07T11:29:57;3.90;;;2.50;;
54599;SDS011;40500;51.084;16.958;2022-12-07T11:32:45;4.30;;;3.00;;
54599;SDS011;40500;51.084;16.958;2022-12-07T11:35:36;4.40;;;3.40;;
54599;SDS011;40500;51.084;16.958;2022-12-07T11:38:20;5.30;;;3.30;;
54599;SDS011;40500;51.084;16.958;2022-12-07T11:40:56;3.50;;;2.40;;
54599;SDS011;40500;51.084;16.958;2022-12-07T11:43:41;2.40;;;1.90;;
54599;SDS011;40500;51.084;16.958;2022-12-07T11:46:17;4.30;;;2.40;;
54599;SDS011;40500;51.084;16.958;2022-12-07T11:48:49;3.10;;;2.60;;
54599;SDS011;40500;51.084;16.958;2022-12-07T11:51:22;3.60;;;3.20;;
54599;SDS011;40500;51.084;16.958;2022-12-07T11:53:59;5.20;;;2.80;;
54599;SDS011;40500;51.084;16.958;2022-12-07T11:56:31;3.00;;;2.50;;
54599;SDS011;40500;51.084;16.958;2022-12-07T11:59:04;7.10;;;3.30;;
54599;SDS011;40500;51.084;16.958;2022-12-07T12:01:41;3.30;;;3.00;;
54599;SDS011;40500;51.084;16.958;2022-12-07T12:04:18;3.00;;;2.70;;
54599;SDS011;40500;51.084;16.958;2022-12-07T12:06:55;2.80;;;2.40;;
54599;SDS011;40500;51.084;16.958;2022-12-07T12:09:48;2.50;;;2.10;;
54599;SDS011;40500;51.084;16.958;2022-12-07T12:15:41;3.80;;;2.70;;
54599;SDS011;40500;51.084;16.958;2022-12-07T12:21:19;2.80;;;2.20;;
54599;SDS011;40500;51.084;16.958;2022-12-07T12:23:55;3.70;;;2.80;;
54599;SDS011;40500;51.084;16.958;2022-12-07T12:26:26;4.50;;;2.50;;
54599;SDS011;40500;51.084;16.958;2022-12-07T12:28:58;3.40;;;2.50;;
54599;SDS011;40500;51.084;16.958;2022-12-07T12:31:36;2.70;;;2.20;;
54599;SDS011;40500;51.084;16.958;2022-12-07T12:36:58;5.60;;;3.00;;
54599;SDS011;40500;51.084;16.958;2022-12-07T12:39:26;4.10;;;2.60;;
54599;SDS011;40500;51.084;16.958;2022-12-07T12:41:55;3.50;;;2.30;;
54599;SDS011;40500;51.084;16.958;2022-12-07T12:47:39;4.30;;;3.60;;
54599;SDS011;40500;51.084;16.958;2022-12-07T12:50:20;2.50;;;2.30;;
54599;SDS011;40500;51.084;16.958;2022-12-07T12:52:52;2.30;;;2.10;;
54599;SDS011;40500;51.084;16.958;2022-12-07T12:55:42;5.30;;;3.10;;
54599;SDS011;40500;51.084;16.958;2022-12-07T12:58:34;5.30;;;2.90;;
54599;SDS011;40500;51.084;16.958;2022-12-07T13:10:25;4.20;;;3.00;;
54599;SDS011;40500;51.084;16.958;2022-12-07T13:13:02;6.40;;;3.80;;
54599;SDS011;40500;51.084;16.958;2022-12-07T13:15:51;4.70;;;3.10;;
54599;SDS011;40500;51.084;16.958;2022-12-07T13:18:23;5.00;;;3.10;;
54599;SDS011;40500;51.084;16.958;2022-12-07T13:21:01;3.90;;;2.80;;
54599;SDS011;40500;51.084;16.958;2022-12-07T13:23:32;5.90;;;3.40;;
54599;SDS011;40500;51.084;16.958;2022-12-07T13:26:13;5.00;;;2.90;;
54599;SDS011;40500;51.084;16.958;2022-12-07T13:28:45;3.00;;;2.30;;
54599;SDS011;40500;51.084;16.958;2022-12-07T13:31:18;5.40;;;3.40;;
54599;SDS011;40500;51.084;16.958;2022-12-07T13:33:53;6.50;;;3.50;;
54599;SDS011;40500;51.084;16.958;2022-12-07T13:36:22;4.50;;;3.50;;
54599;SDS011;40500;51.084;16.958;2022-12-07T13:38:54;4.80;;;3.00;;
54599;SDS011;40500;51.084;16.958;2022-12-07T13:41:24;3.50;;;2.90;;
54599;SDS011;40500;51.084;16.958;2022-12-07T13:43:55;4.80;;;3.70;;
54599;SDS011;40500;51.084;16.958;2022-12-07T13:46:35;4.60;;;3.90;;
54599;SDS011;40500;51.084;16.958;2022-12-07T13:49:16;5.60;;;3.50;;
54599;SDS011;40500;51.084;16.958;2022-12-07T13:51:47;5.90;;;3.40;;
54599;SDS011;40500;51.084;16.958;2022-12-07T13:54:16;5.10;;;3.50;;
54599;SDS011;40500;51.084;16.958;2022-12-07T13:56:47;5.60;;;3.70;;
54599;SDS011;40500;51.084;16.958;2022-12-07T13:59:17;4.00;;;3.20;;
54599;SDS011;40500;51.084;16.958;2022-12-07T14:01:47;4.00;;;3.20;;
54599;SDS011;40500;51.084;16.958;2022-12-07T14:04:17;7.90;;;3.30;;
54599;SDS011;40500;51.084;16.958;2022-12-07T14:06:59;5.10;;;3.30;;
54599;SDS011;40500;51.084;16.958;2022-12-07T14:09:29;6.30;;;3.50;;
54599;SDS011;40500;51.084;16.958;2022-12-07T14:11:57;6.70;;;3.30;;
54599;SDS011;40500;51.084;16.958;2022-12-07T14:14:26;7.00;;;4.00;;
54599;SDS011;40500;51.084;16.958;2022-12-07T14:17:09;5.10;;;3.30;;
54599;SDS011;40500;51.084;16.958;2022-12-07T14:19:43;7.90;;;3.90;;
54599;SDS011;40500;51.084;16.958;2022-12-07T14:22:20;8.60;;;5.40;;
54599;SDS011;40500;51.084;16.958;2022-12-07T14:24:50;5.80;;;3.70;;
54599;SDS011;40500;51.084;16.958;2022-12-07T14:27:19;5.20;;;3.10;;
54599;SDS011;40500;51.084;16.958;2022-12-07T14:29:48;5.50;;;3.40;;
54599;SDS011;40500;51.084;16.958;2022-12-07T14:32:20;7.40;;;3.60;;
54599;SDS011;40500;51.084;16.958;2022-12-07T14:34:55;6.00;;;2.60;;
54599;SDS011;40500;51.084;16.958;2022-12-07T14:37:25;6.50;;;4.10;;
54599;SDS011;40500;51.084;16.958;2022-12-07T14:39:53;6.80;;;3.40;;
54599;SDS011;40500;51.084;16.958;2022-12-07T14:42:21;6.60;;;4.10;;
54599;SDS011;40500;51.084;16.958;2022-12-07T14:44:53;7.60;;;3.70;;
54599;SDS011;40500;51.084;16.958;2022-12-07T14:47:22;5.80;;;3.30;;
54599;SDS011;40500;51.084;16.958;2022-12-07T14:50:12;8.60;;;3.20;;
54599;SDS011;40500;51.084;16.958;2022-12-07T14:52:42;5.20;;;3.00;;
54599;SDS011;40500;51.084;16.958;2022-12-07T14:55:32;5.50;;;3.60;;
54599;SDS011;40500;51.084;16.958;2022-12-07T14:58:00;5.60;;;3.60;;
54599;SDS011;40500;51.084;16.958;2022-12-07T15:00:35;6.40;;;4.00;;
54599;SDS011;40500;51.084;16.958;2022-12-07T15:03:03;7.80;;;4.40;;
54599;SDS011;40500;51.084;16.958;2022-12-07T15:05:31;7.10;;;4.20;;
54599;SDS011;40500;51.084;16.958;2022-12-07T15:07:59;6.30;;;3.90;;
54599;SDS011;40500;51.084;16.958;2022-12-07T15:10:28;6.20;;;3.60;;
54599;SDS011;40500;51.084;16.958;2022-12-07T15:12:58;11.60;;;4.00;;
54599;SDS011;40500;51.084;16.958;2022-12-07T15:15:47;6.50;;;3.40;;
54599;SDS011;40500;51.084;16.958;2022-12-07T15:18:16;7.10;;;4.00;;
54599;SDS011;40500;51.084;16.958;2022-12-07T15:20:45;7.00;;;3.70;;
54599;SDS011;40500;51.084;16.958;2022-12-07T15:23:13;6.70;;;4.60;;
54599;SDS011;40500;51.084;16.958;2022-12-07T15:25:41;5.40;;;3.80;;
54599;SDS011;40500;51.084;16.958;2022-12-07T15:28:10;6.80;;;3.60;;
54599;SDS011;40500;51.084;16.958;2022-12-07T15:30:37;5.50;;;3.60;;
54599;SDS011;40500;51.084;16.958;2022-12-07T15:33:05;5.60;;;4.30;;
54599;SDS011;40500;51.084;16.958;2022-12-07T15:35:33;5.20;;;3.70;;
54599;SDS011;40500;51.084;16.958;2022-12-07T15:38:06;5.90;;;4.00;;
54599;SDS011;40500;51.084;16.958;2022-12-07T15:40:34;7.20;;;4.10;;
54599;SDS011;40500;51.084;16.958;2022-12-07T15:43:02;7.20;;;4.50;;
54599;SDS011;40500;51.084;16.958;2022-12-07T15:45:31;5.90;;;4.10;;
54599;SDS011;40500;51.084;16.958;2022-12-07T15:47:59;7.80;;;4.10;;
54599;SDS011;40500;51.084;16.958;2022-12-07T15:50:47;5.60;;;4.20;;
54599;SDS011;40500;51.084;16.958;2022-12-07T15:53:15;6.80;;;3.90;;
54599;SDS011;40500;51.084;16.958;2022-12-07T15:55:42;7.40;;;4.00;;
54599;SDS011;40500;51.084;16.958;2022-12-07T15:58:10;7.50;;;4.80;;
54599;SDS011;40500;51.084;16.958;2022-12-07T16:00:37;8.20;;;4.70;;
54599;SDS011;40500;51.084;16.958;2022-12-07T16:03:05;10.20;;;5.70;;
54599;SDS011;40500;51.084;16.958;2022-12-07T16:05:33;8.00;;;4.90;;
54599;SDS011;40500;51.084;16.958;2022-12-07T16:08:01;11.60;;;5.70;;
54599;SDS011;40500;51.084;16.958;2022-12-07T16:10:29;6.80;;;4.00;;
54599;SDS011;40500;51.084;16.958;2022-12-07T16:12:57;9.20;;;4.80;;
54599;SDS011;40500;51.084;16.958;2022-12-07T16:15:25;8.30;;;4.00;;
54599;SDS011;40500;51.084;16.958;2022-12-07T16:17:53;8.20;;;4.00;;